createdAt,value
2022-09-17T00:00:19.253Z,2.73
2022-09-17T00:02:47.657Z,2.70
2022-09-17T00:05:14.148Z,2.33
2022-09-17T00:07:40.556Z,1.90
2022-09-17T00:10:07.063Z,2.50
2022-09-17T00:12:33.425Z,2.47
2022-09-17T00:14:59.785Z,2.20
2022-09-17T00:17:26.138Z,2.57
2022-09-17T00:19:52.457Z,2.00
2022-09-17T00:22:18.786Z,3.20
2022-09-17T00:24:45.031Z,2.37
2022-09-17T00:27:11.358Z,2.27
2022-09-17T00:29:37.686Z,2.63
2022-09-17T00:32:04.131Z,1.93
2022-09-17T00:34:30.509Z,2.47
2022-09-17T00:36:56.833Z,2.07
2022-09-17T00:39:23.174Z,2.17
2022-09-17T00:41:49.423Z,2.10
2022-09-17T00:44:34.435Z,2.40
2022-09-17T00:47:00.784Z,2.07
2022-09-17T00:49:30.695Z,1.90
2022-09-17T00:52:08.377Z,1.90
2022-09-17T00:54:36.454Z,1.60
2022-09-17T00:57:02.752Z,2.20
2022-09-17T00:59:29.256Z,2.23
2022-09-17T01:01:55.672Z,2.33
2022-09-17T01:04:25.305Z,2.03
2022-09-17T01:07:00.560Z,2.07
2022-09-17T01:09:26.781Z,2.53
2022-09-17T01:12:19.117Z,2.23
2022-09-17T01:14:48.501Z,2.37
2022-09-17T01:17:33.405Z,2.70
2022-09-17T01:20:21.602Z,3.37
2022-09-17T01:23:00.230Z,3.43
2022-09-17T01:25:52.305Z,3.00
2022-09-17T01:28:32.811Z,2.87
2022-09-17T01:31:22.376Z,3.33
2022-09-17T01:34:17.353Z,3.23
2022-09-17T01:36:53.017Z,2.57
2022-09-17T01:39:43.776Z,2.60
2022-09-17T01:42:23.937Z,2.40
2022-09-17T01:44:59.799Z,2.73
2022-09-17T01:47:52.021Z,2.67
2022-09-17T01:50:30.675Z,2.47
2022-09-17T01:52:59.129Z,2.63
2022-09-17T01:55:32.062Z,2.53
2022-09-17T01:58:10.739Z,2.00
2022-09-17T02:00:42.244Z,2.73
2022-09-17T02:03:20.405Z,2.50
2022-09-17T02:05:55.336Z,3.00
2022-09-17T02:08:26.046Z,3.53
2022-09-17T02:11:10.704Z,2.97
2022-09-17T02:13:43.061Z,2.97
2022-09-17T02:16:41.145Z,2.53
2022-09-17T02:19:16.503Z,2.00
2022-09-17T02:22:16.167Z,2.50
2022-09-17T02:24:54.724Z,2.80
2022-09-17T02:27:36.292Z,3.20
2022-09-17T02:30:03.481Z,2.83
2022-09-17T02:32:29.825Z,2.47
2022-09-17T02:34:56.112Z,2.57
2022-09-17T02:37:22.507Z,2.70
2022-09-17T02:39:48.998Z,2.90
2022-09-17T02:42:52.541Z,2.53
2022-09-17T02:45:46.069Z,2.20
2022-09-17T02:48:20.780Z,2.60
2022-09-17T02:51:16.511Z,2.70
2022-09-17T02:54:00.779Z,2.73
2022-09-17T02:56:44.184Z,2.70
2022-09-17T02:59:21.625Z,2.20
2022-09-17T03:02:03.142Z,2.33
2022-09-17T03:04:30.829Z,2.83
2022-09-17T03:06:59.409Z,2.13
2022-09-17T03:09:26.007Z,1.90
2022-09-17T03:11:52.403Z,3.17
2022-09-17T03:14:20.568Z,2.00
2022-09-17T03:16:47.805Z,3.17
2022-09-17T03:19:14.137Z,2.80
2022-09-17T03:21:40.460Z,2.50
2022-09-17T03:24:06.835Z,2.70
2022-09-17T03:26:33.149Z,2.77
2022-09-17T03:28:59.844Z,2.50
2022-09-17T03:31:26.207Z,2.30
2022-09-17T03:33:52.535Z,2.73
2022-09-17T03:36:18.974Z,2.73
2022-09-17T03:38:45.262Z,2.67
2022-09-17T03:41:11.852Z,2.20
2022-09-17T03:43:39.725Z,2.93
2022-09-17T03:46:06.304Z,2.10
2022-09-17T03:48:36.856Z,2.30
2022-09-17T03:51:03.923Z,2.47
2022-09-17T03:53:30.359Z,1.80
2022-09-17T03:56:01.550Z,2.20
2022-09-17T03:58:29.512Z,2.33
2022-09-17T04:00:57.751Z,1.70
2022-09-17T04:03:25.506Z,1.60
2022-09-17T04:05:52.097Z,3.03
2022-09-17T04:08:18.532Z,2.10
2022-09-17T04:10:45.144Z,2.50
2022-09-17T04:13:12.276Z,1.97
2022-09-17T04:15:38.960Z,1.80
2022-09-17T04:18:05.827Z,2.33
2022-09-17T04:20:32.331Z,1.83
2022-09-17T04:22:58.731Z,1.33
2022-09-17T04:25:25.073Z,2.00
2022-09-17T04:27:51.732Z,1.80
2022-09-17T04:30:18.199Z,1.57
2022-09-17T04:32:44.920Z,1.83
2022-09-17T04:35:12.028Z,1.50
2022-09-17T04:37:38.479Z,1.60
2022-09-17T04:40:08.140Z,1.40
2022-09-17T04:42:34.680Z,1.90
2022-09-17T04:45:01.008Z,1.27
2022-09-17T04:47:27.297Z,2.33
2022-09-17T04:49:53.600Z,1.80
2022-09-17T04:52:19.917Z,2.27
2022-09-17T04:54:46.168Z,1.80
2022-09-17T04:57:12.508Z,2.27
2022-09-17T04:59:38.800Z,1.30
2022-09-17T05:02:05.239Z,1.40
2022-09-17T05:04:31.578Z,2.10
2022-09-17T05:06:57.924Z,1.33
2022-09-17T05:09:24.234Z,1.43
2022-09-17T05:11:50.545Z,2.17
2022-09-17T05:14:16.850Z,1.90
2022-09-17T05:16:43.159Z,1.67
2022-09-17T05:19:09.708Z,1.90
2022-09-17T05:21:36.104Z,1.93
2022-09-17T05:24:02.542Z,2.03
2022-09-17T05:26:29.398Z,1.70
2022-09-17T05:28:55.732Z,1.53
2022-09-17T05:31:22.191Z,1.93
2022-09-17T05:33:48.516Z,1.63
2022-09-17T05:36:14.850Z,1.63
2022-09-17T05:38:41.160Z,1.70
2022-09-17T05:41:07.613Z,1.80
2022-09-17T05:43:34.088Z,1.30
2022-09-17T05:46:02.588Z,1.50
2022-09-17T05:48:29.539Z,2.00
2022-09-17T05:50:56.174Z,1.93
2022-09-17T05:53:22.950Z,1.40
2022-09-17T05:55:49.450Z,1.63
2022-09-17T05:58:18.583Z,1.70
2022-09-17T06:00:47.901Z,2.10
2022-09-17T06:03:16.135Z,1.57
2022-09-17T06:05:42.830Z,1.60
2022-09-17T06:08:09.900Z,1.67
2022-09-17T06:10:37.222Z,1.70
2022-09-17T06:13:03.646Z,1.60
2022-09-17T06:15:30.450Z,1.60
2022-09-17T06:17:56.958Z,2.13
2022-09-17T06:20:23.198Z,1.90
2022-09-17T06:22:49.525Z,1.90
2022-09-17T06:25:15.999Z,1.90
2022-09-17T06:27:42.313Z,1.90
2022-09-17T06:30:08.876Z,2.27
2022-09-17T06:32:35.235Z,1.37
2022-09-17T06:35:01.634Z,1.80
2022-09-17T06:37:28.881Z,2.20
2022-09-17T06:39:55.594Z,2.03
2022-09-17T06:42:22.099Z,2.23
2022-09-17T06:44:48.451Z,2.03
2022-09-17T06:47:14.835Z,1.80
2022-09-17T06:49:41.154Z,1.53
2022-09-17T06:52:07.476Z,1.70
2022-09-17T06:54:33.804Z,1.80
2022-09-17T06:57:00.203Z,1.83
2022-09-17T06:59:27.293Z,1.40
2022-09-17T07:01:53.667Z,1.67
2022-09-17T07:04:20.043Z,2.13
2022-09-17T07:06:46.530Z,2.10
2022-09-17T07:09:12.956Z,2.07
2022-09-17T07:11:39.711Z,1.77
2022-09-17T07:14:06.869Z,2.27
2022-09-17T07:16:35.864Z,2.23
2022-09-17T07:19:03.345Z,2.40
2022-09-17T07:21:29.731Z,2.47
2022-09-17T07:23:56.080Z,2.60
2022-09-17T07:26:22.483Z,2.10
2022-09-17T07:28:48.746Z,2.20
2022-09-17T07:31:16.810Z,2.73
2022-09-17T07:33:43.950Z,2.10
2022-09-17T07:36:13.123Z,2.17
2022-09-17T07:38:39.618Z,2.50
2022-09-17T07:41:14.405Z,1.50
2022-09-17T07:43:41.198Z,2.20
2022-09-17T07:46:10.007Z,1.70
2022-09-17T07:48:36.476Z,2.40
2022-09-17T07:51:02.900Z,1.40
2022-09-17T07:53:29.370Z,2.20
2022-09-17T07:56:00.193Z,1.87
2022-09-17T07:58:30.477Z,2.00
2022-09-17T08:01:10.685Z,1.53
2022-09-17T08:03:38.386Z,1.30
2022-09-17T08:06:08.183Z,1.17
2022-09-17T08:08:35.853Z,1.47
2022-09-17T08:11:03.231Z,1.70
2022-09-17T08:13:30.036Z,1.33
2022-09-17T08:16:04.161Z,2.27
2022-09-17T08:18:31.063Z,1.10
2022-09-17T08:21:02.366Z,1.43
2022-09-17T08:23:30.219Z,1.17
2022-09-17T08:25:58.704Z,1.27
2022-09-17T08:28:26.083Z,1.50
2022-09-17T08:30:53.331Z,1.30
2022-09-17T08:33:20.650Z,1.17
2022-09-17T08:35:54.411Z,1.23
2022-09-17T08:38:21.297Z,1.27
2022-09-17T08:41:07.060Z,1.00
2022-09-17T08:43:45.567Z,1.70
2022-09-17T08:46:12.211Z,1.60
2022-09-17T08:49:15.267Z,1.00
2022-09-17T08:52:18.878Z,1.47
2022-09-17T08:55:21.500Z,1.50
2022-09-17T08:57:53.778Z,1.00
2022-09-17T09:00:20.796Z,1.20
2022-09-17T09:03:03.445Z,1.17
2022-09-17T09:05:47.694Z,1.10
2022-09-17T09:08:28.617Z,1.10
2022-09-17T09:10:56.391Z,0.93
2022-09-17T09:13:28.377Z,1.57
2022-09-17T09:16:06.748Z,1.20
2022-09-17T09:18:40.821Z,1.30
2022-09-17T09:21:27.642Z,1.33
2022-09-17T09:23:58.366Z,1.47
2022-09-17T09:26:58.604Z,1.03
2022-09-17T09:29:40.118Z,1.07
2022-09-17T09:32:34.392Z,1.00
2022-09-17T09:35:02.481Z,1.07
2022-09-17T09:37:33.091Z,1.00
2022-09-17T09:40:28.809Z,0.83
2022-09-17T09:43:00.641Z,1.00
2022-09-17T09:45:35.682Z,1.10
2022-09-17T09:48:39.036Z,1.20
2022-09-17T09:51:27.373Z,0.90
2022-09-17T09:54:07.786Z,0.87
2022-09-17T09:57:07.265Z,1.20
2022-09-17T09:59:36.109Z,1.63
2022-09-17T10:02:03.269Z,1.10
2022-09-17T10:04:30.165Z,1.07
2022-09-17T10:07:04.894Z,1.10
2022-09-17T10:09:32.806Z,1.13
2022-09-17T10:12:16.311Z,1.47
2022-09-17T10:14:45.119Z,1.17
2022-09-17T10:17:26.029Z,1.30
2022-09-17T10:20:23.401Z,1.00
2022-09-17T10:22:50.030Z,0.90
2022-09-17T10:25:34.294Z,1.10
2022-09-17T10:28:05.644Z,1.13
2022-09-17T10:30:32.016Z,1.43
2022-09-17T10:33:17.420Z,1.07
2022-09-17T10:36:07.688Z,1.37
2022-09-17T10:38:35.809Z,0.80
2022-09-17T10:41:09.565Z,0.80
2022-09-17T10:43:36.347Z,1.10
2022-09-17T10:46:03.387Z,0.80
2022-09-17T10:48:38.753Z,0.93
2022-09-17T10:51:06.643Z,0.60
2022-09-17T10:53:54.062Z,1.00
2022-09-17T10:56:30.957Z,1.00
2022-09-17T10:59:07.719Z,0.90
2022-09-17T11:01:57.867Z,0.93
2022-09-17T11:04:42.453Z,1.40
2022-09-17T11:07:11.773Z,0.90
2022-09-17T11:10:05.741Z,1.00
2022-09-17T11:12:41.989Z,0.83
2022-09-17T11:15:37.358Z,0.70
2022-09-17T11:18:27.469Z,0.80
2022-09-17T11:21:08.461Z,0.80
2022-09-17T11:23:53.677Z,0.83
2022-09-17T11:26:37.383Z,1.10
2022-09-17T11:29:29.716Z,0.80
2022-09-17T11:31:56.472Z,0.80
2022-09-17T11:34:42.644Z,0.90
2022-09-17T11:37:28.419Z,1.53
2022-09-17T11:40:24.256Z,0.97
2022-09-17T11:43:00.238Z,1.27
2022-09-17T11:45:29.549Z,0.87
2022-09-17T11:48:17.181Z,0.73
2022-09-17T11:50:49.105Z,0.93
2022-09-17T11:53:23.442Z,1.00
2022-09-17T11:55:57.891Z,0.80
2022-09-17T11:58:38.307Z,0.87
2022-09-17T12:01:07.046Z,0.83
2022-09-17T12:03:36.123Z,0.80
2022-09-17T12:06:09.251Z,0.90
2022-09-17T12:08:48.043Z,0.83
2022-09-17T12:11:27.242Z,0.97
2022-09-17T12:14:00.757Z,0.90
2022-09-17T12:16:43.555Z,1.13
2022-09-17T12:19:41.065Z,1.10
2022-09-17T12:22:10.690Z,1.10
2022-09-17T12:24:38.649Z,1.10
2022-09-17T12:27:07.762Z,1.10
2022-09-17T12:29:55.027Z,0.93
2022-09-17T12:32:31.185Z,0.97
2022-09-17T12:35:06.678Z,1.30
2022-09-17T12:37:47.175Z,0.93
2022-09-17T12:40:35.371Z,0.80
2022-09-17T12:43:08.406Z,1.03
2022-09-17T12:45:53.003Z,0.90
2022-09-17T12:48:25.108Z,0.97
2022-09-17T12:51:14.685Z,1.40
2022-09-17T12:54:08.911Z,1.10
2022-09-17T12:57:00.859Z,1.13
2022-09-17T12:59:30.123Z,1.40
2022-09-17T13:02:11.199Z,1.30
2022-09-17T13:05:00.594Z,1.20
2022-09-17T13:08:05.032Z,0.93
2022-09-17T13:10:58.303Z,1.40
2022-09-17T13:13:30.744Z,1.20
2022-09-17T13:16:10.164Z,1.23
2022-09-17T13:19:15.201Z,0.93
2022-09-17T13:21:49.572Z,1.30
2022-09-17T13:24:16.896Z,1.17
2022-09-17T13:26:45.541Z,1.00
2022-09-17T13:29:13.760Z,1.20
2022-09-17T13:31:42.017Z,0.93
2022-09-17T13:34:17.231Z,0.90
2022-09-17T13:36:45.919Z,0.90
2022-09-17T13:39:30.763Z,0.90
2022-09-17T13:42:05.999Z,1.93
2022-09-17T13:44:34.586Z,1.03
2022-09-17T13:47:15.879Z,0.97
2022-09-17T13:49:52.899Z,1.10
2022-09-17T13:52:38.482Z,1.17
2022-09-17T13:55:06.741Z,1.53
2022-09-17T13:57:45.564Z,1.60
2022-09-17T14:00:47.490Z,1.80
2022-09-17T14:03:28.916Z,2.27
2022-09-17T14:05:55.531Z,1.60
2022-09-17T14:08:29.233Z,1.20
2022-09-17T14:10:57.619Z,1.63
2022-09-17T14:13:36.023Z,1.20
2022-09-17T14:16:02.649Z,1.70
2022-09-17T14:18:28.945Z,1.40
2022-09-17T14:21:14.348Z,1.30
2022-09-17T14:23:47.414Z,1.67
2022-09-17T14:26:25.542Z,0.97
2022-09-17T14:29:12.714Z,0.80
2022-09-17T14:31:39.479Z,1.10
2022-09-17T14:34:06.497Z,0.73
2022-09-17T14:36:37.479Z,1.20
2022-09-17T14:39:10.230Z,0.90
2022-09-17T14:41:42.423Z,0.93
2022-09-17T14:44:32.726Z,0.80
2022-09-17T14:47:15.423Z,1.10
2022-09-17T14:49:42.955Z,1.00
2022-09-17T14:52:24.680Z,1.07
2022-09-17T14:55:17.981Z,1.30
2022-09-17T14:57:56.238Z,0.90
2022-09-17T15:00:26.860Z,1.20
2022-09-17T15:02:55.567Z,1.00
2022-09-17T15:05:29.598Z,1.37
2022-09-17T15:08:07.397Z,1.10
2022-09-17T15:10:35.569Z,1.00
2022-09-17T15:13:07.020Z,1.20
2022-09-17T15:15:34.888Z,1.20
2022-09-17T15:18:01.248Z,1.10
2022-09-17T15:20:28.825Z,1.10
2022-09-17T15:23:00.436Z,1.20
2022-09-17T15:25:30.048Z,1.33
2022-09-17T15:27:58.673Z,1.00
2022-09-17T15:30:25.457Z,1.27
2022-09-17T15:32:55.218Z,1.00
2022-09-17T15:35:23.495Z,1.23
2022-09-17T15:38:22.189Z,1.53
2022-09-17T15:40:49.182Z,1.00
2022-09-17T15:43:34.197Z,0.80
2022-09-17T15:46:24.796Z,1.30
2022-09-17T15:48:52.348Z,1.10
2022-09-17T15:51:26.336Z,1.20
2022-09-17T15:54:27.747Z,1.10
2022-09-17T15:56:56.330Z,1.50
2022-09-17T15:59:31.958Z,1.00
2022-09-17T16:02:01.204Z,1.10
2022-09-17T16:04:32.941Z,0.90
2022-09-17T16:07:11.581Z,1.10
2022-09-17T16:09:46.750Z,1.10
2022-09-17T16:12:16.614Z,0.97
2022-09-17T16:14:44.843Z,1.43
2022-09-17T16:17:21.722Z,0.93
2022-09-17T16:19:48.132Z,1.00
2022-09-17T16:22:14.466Z,0.87
2022-09-17T16:24:41.041Z,0.90
2022-09-17T16:27:10.919Z,1.33
2022-09-17T16:29:37.263Z,1.07
2022-09-17T16:32:03.634Z,1.27
2022-09-17T16:34:29.959Z,1.37
2022-09-17T16:36:56.320Z,0.90
2022-09-17T16:39:22.792Z,1.43
2022-09-17T16:41:49.058Z,1.10
2022-09-17T16:44:15.407Z,1.10
2022-09-17T16:46:41.896Z,1.10
2022-09-17T16:49:08.318Z,1.20
2022-09-17T16:51:34.666Z,1.47
2022-09-17T16:54:01.065Z,1.20
2022-09-17T16:56:27.397Z,1.03
2022-09-17T16:58:54.947Z,1.20
2022-09-17T17:01:21.242Z,1.47
2022-09-17T17:03:51.130Z,1.17
2022-09-17T17:06:18.279Z,1.40
2022-09-17T17:08:44.842Z,1.43
2022-09-17T17:11:11.861Z,0.90
2022-09-17T17:13:38.647Z,1.27
2022-09-17T17:16:08.702Z,1.30
2022-09-17T17:18:35.284Z,1.23
2022-09-17T17:21:05.642Z,1.03
2022-09-17T17:23:32.054Z,1.10
2022-09-17T17:25:58.435Z,1.30
2022-09-17T17:28:24.905Z,1.40
2022-09-17T17:30:51.235Z,1.53
2022-09-17T17:33:17.633Z,1.37
2022-09-17T17:35:45.369Z,1.50
2022-09-17T17:38:11.716Z,1.50
2022-09-17T17:40:38.105Z,1.30
2022-09-17T17:43:04.620Z,1.53
2022-09-17T17:45:31.106Z,1.17
2022-09-17T17:47:57.517Z,1.33
2022-09-17T17:50:23.876Z,1.60
2022-09-17T17:52:50.253Z,1.57
2022-09-17T17:55:16.628Z,1.30
2022-09-17T17:57:42.981Z,1.30
2022-09-17T18:00:12.250Z,1.53
2022-09-17T18:02:39.446Z,1.60
2022-09-17T18:05:06.123Z,1.47
2022-09-17T18:07:32.550Z,1.43
2022-09-17T18:09:58.946Z,1.87
2022-09-17T18:12:27.112Z,1.20
2022-09-17T18:14:53.617Z,2.20
2022-09-17T18:17:19.894Z,1.90
2022-09-17T18:19:46.231Z,2.00
2022-09-17T18:22:12.653Z,1.90
2022-09-17T18:24:38.978Z,2.40
2022-09-17T18:27:05.341Z,1.80
2022-09-17T18:29:31.700Z,1.90
2022-09-17T18:31:58.047Z,1.83
2022-09-17T18:34:24.457Z,3.17
2022-09-17T18:36:52.098Z,1.80
2022-09-17T18:42:06.854Z,2.03
2022-09-17T18:44:33.174Z,1.60
2022-09-17T18:46:59.620Z,1.93
2022-09-17T18:49:26.113Z,2.07
2022-09-17T18:51:52.462Z,1.97
2022-09-17T18:54:18.808Z,1.70
2022-09-17T18:56:45.213Z,1.93
2022-09-17T18:59:11.605Z,1.80
2022-09-17T19:01:38.611Z,2.67
2022-09-17T19:04:07.387Z,2.57
2022-09-17T19:06:33.842Z,1.77
2022-09-17T19:09:01.883Z,1.70
2022-09-17T19:11:28.556Z,2.57
2022-09-17T19:13:55.725Z,2.27
2022-09-17T19:16:22.607Z,1.57
2022-09-17T19:18:49.255Z,2.03
2022-09-17T19:21:17.122Z,1.97
2022-09-17T19:23:46.528Z,2.33
2022-09-17T19:26:16.862Z,1.63
2022-09-17T19:28:43.507Z,1.50
2022-09-17T19:31:12.121Z,1.90
2022-09-17T19:33:38.530Z,1.67
2022-09-17T19:36:06.436Z,1.63
2022-09-17T19:38:33.367Z,1.70
2022-09-17T19:41:02.950Z,1.90
2022-09-17T19:43:30.508Z,2.30
2022-09-17T19:46:04.930Z,1.43
2022-09-17T19:48:31.418Z,2.33
2022-09-17T19:50:58.121Z,2.03
2022-09-17T19:53:27.781Z,1.97
2022-09-17T19:55:54.703Z,1.77
2022-09-17T19:58:21.524Z,2.03
2022-09-17T20:00:47.929Z,1.60
2022-09-17T20:03:14.398Z,1.43
2022-09-17T20:05:40.813Z,1.70
2022-09-17T20:08:07.271Z,1.80
2022-09-17T20:10:39.952Z,2.07
2022-09-17T20:13:07.067Z,1.93
2022-09-17T20:15:33.909Z,2.07
2022-09-17T20:18:00.254Z,2.23
2022-09-17T20:20:28.428Z,2.23
2022-09-17T20:22:55.729Z,2.60
2022-09-17T20:25:23.967Z,2.60
2022-09-17T20:27:50.334Z,2.73
2022-09-17T20:30:16.601Z,2.47
2022-09-17T20:32:42.967Z,2.20
2022-09-17T20:35:09.490Z,2.17
2022-09-17T20:38:33.070Z,2.40
2022-09-17T20:40:22.219Z,1.83
2022-09-17T20:42:48.814Z,1.70
2022-09-17T20:45:15.141Z,1.90
2022-09-17T20:47:41.732Z,2.00
2022-09-17T20:50:08.314Z,1.63
2022-09-17T20:52:34.925Z,1.80
2022-09-17T20:55:01.359Z,1.70
2022-09-17T20:57:30.031Z,2.30
2022-09-17T21:00:00.273Z,2.07
2022-09-17T21:02:27.219Z,2.07
2022-09-17T21:04:54.026Z,2.30
2022-09-17T21:07:20.453Z,2.13
2022-09-17T21:09:47.199Z,2.53
2022-09-17T21:12:13.545Z,1.90
2022-09-17T21:14:39.814Z,1.77
2022-09-17T21:17:06.247Z,1.60
2022-09-17T21:19:32.778Z,1.90
2022-09-17T21:21:59.165Z,1.77
2022-09-17T21:24:25.610Z,1.77
2022-09-17T21:26:54.000Z,2.13
2022-09-17T21:29:20.759Z,1.53
2022-09-17T21:31:47.605Z,1.80
2022-09-17T21:34:14.145Z,1.77
2022-09-17T21:36:44.350Z,1.50
2022-09-17T21:39:15.035Z,1.57
2022-09-17T21:41:43.061Z,1.27
2022-09-17T21:44:13.865Z,1.40
2022-09-17T21:46:41.022Z,1.23
2022-09-17T21:49:07.503Z,1.70
2022-09-17T21:51:37.129Z,1.50
2022-09-17T21:54:09.468Z,1.70
2022-09-17T21:56:36.721Z,1.57
2022-09-17T21:59:08.598Z,1.40
2022-09-17T22:01:46.300Z,1.40
2022-09-17T22:04:15.731Z,1.60
2022-09-17T22:06:43.351Z,1.40
2022-09-17T22:09:18.483Z,1.40
2022-09-17T22:11:45.244Z,1.70
2022-09-17T22:14:19.058Z,1.37
2022-09-17T22:16:47.850Z,1.50
2022-09-17T22:19:16.385Z,1.87
2022-09-17T22:21:47.094Z,1.63
2022-09-17T22:24:15.706Z,1.57
2022-09-17T22:26:44.773Z,1.50
2022-09-17T22:29:17.422Z,1.40
2022-09-17T22:31:44.779Z,1.87
2022-09-17T22:34:14.204Z,2.10
2022-09-17T22:36:41.267Z,1.63
2022-09-17T22:39:07.891Z,1.57
2022-09-17T22:41:36.285Z,1.43
2022-09-17T22:44:07.476Z,1.63
2022-09-17T22:46:36.817Z,1.40
2022-09-17T22:49:03.385Z,1.77
2022-09-17T22:51:30.823Z,1.87
2022-09-17T22:53:58.696Z,1.80
2022-09-17T22:56:25.604Z,2.20
2022-09-17T22:58:51.956Z,1.20
2022-09-17T23:01:23.818Z,1.63
2022-09-17T23:03:53.222Z,2.10
2022-09-17T23:06:22.327Z,1.70
2022-09-17T23:08:48.675Z,2.00
2022-09-17T23:11:17.269Z,1.67
2022-09-17T23:13:43.578Z,1.47
2022-09-17T23:16:10.210Z,1.70
2022-09-17T23:18:38.395Z,1.60
2022-09-17T23:21:09.144Z,1.83
2022-09-17T23:23:36.582Z,1.67
2022-09-17T23:26:04.496Z,1.67
2022-09-17T23:28:30.885Z,1.67
2022-09-17T23:30:57.364Z,1.57
2022-09-17T23:33:23.702Z,1.83
2022-09-17T23:35:49.978Z,1.40
2022-09-17T23:38:16.319Z,2.00
2022-09-17T23:40:42.660Z,1.70
2022-09-17T23:43:09.023Z,1.60
2022-09-17T23:45:35.375Z,2.07
2022-09-17T23:48:01.946Z,1.37
2022-09-17T23:50:28.352Z,2.13
2022-09-17T23:52:54.695Z,2.13
2022-09-17T23:55:21.030Z,1.90
2022-09-17T23:57:47.420Z,2.00
